sensor_id;sensor_type;location;lat;lon;timestamp;P1;durP1;ratioP1;P2;durP2;ratioP2
84766;SDS011;74995;49.824;10.994;2024-03-23T00:55:52;6.07;;;3.63;;
84766;SDS011;74995;49.824;10.994;2024-03-23T00:58:17;7.07;;;3.90;;
84766;SDS011;74995;49.824;10.994;2024-03-23T01:00:42;5.70;;;4.25;;
84766;SDS011;74995;49.824;10.994;2024-03-23T01:03:08;5.60;;;4.25;;
84766;SDS011;74995;49.824;10.994;2024-03-23T01:05:33;6.75;;;3.85;;
84766;SDS011;74995;49.824;10.994;2024-03-23T01:07:58;7.63;;;4.00;;
84766;SDS011;74995;49.824;10.994;2024-03-23T01:10:24;11.15;;;4.43;;
84766;SDS011;74995;49.824;10.994;2024-03-23T01:12:49;6.05;;;4.97;;
84766;SDS011;74995;49.824;10.994;2024-03-23T01:15:14;7.20;;;4.18;;
84766;SDS011;74995;49.824;10.994;2024-03-23T01:17:40;6.22;;;4.32;;
84766;SDS011;74995;49.824;10.994;2024-03-23T01:20:05;5.65;;;4.20;;
84766;SDS011;74995;49.824;10.994;2024-03-23T01:22:32;7.55;;;4.22;;
84766;SDS011;74995;49.824;10.994;2024-03-23T01:24:58;7.40;;;4.10;;
84766;SDS011;74995;49.824;10.994;2024-03-23T01:27:23;5.53;;;4.07;;
84766;SDS011;74995;49.824;10.994;2024-03-23T01:29:48;6.80;;;4.53;;
84766;SDS011;74995;49.824;10.994;2024-03-23T01:32:14;8.20;;;3.95;;
84766;SDS011;74995;49.824;10.994;2024-03-23T01:34:39;5.25;;;3.80;;
84766;SDS011;74995;49.824;10.994;2024-03-23T01:37:04;6.25;;;4.35;;
84766;SDS011;74995;49.824;10.994;2024-03-23T01:39:30;6.15;;;3.90;;
84766;SDS011;74995;49.824;10.994;2024-03-23T01:41:55;5.93;;;4.10;;
84766;SDS011;74995;49.824;10.994;2024-03-23T01:44:20;6.20;;;4.35;;
84766;SDS011;74995;49.824;10.994;2024-03-23T01:46:46;5.93;;;3.85;;
84766;SDS011;74995;49.824;10.994;2024-03-23T01:49:12;7.05;;;3.95;;
84766;SDS011;74995;49.824;10.994;2024-03-23T01:51:37;6.85;;;4.07;;
84766;SDS011;74995;49.824;10.994;2024-03-23T01:54:03;6.30;;;4.18;;
84766;SDS011;74995;49.824;10.994;2024-03-23T01:56:38;7.53;;;4.70;;
84766;SDS011;74995;49.824;10.994;2024-03-23T01:59:04;6.72;;;4.35;;
84766;SDS011;74995;49.824;10.994;2024-03-23T02:01:30;6.53;;;3.97;;
84766;SDS011;74995;49.824;10.994;2024-03-23T02:03:56;5.50;;;4.18;;
84766;SDS011;74995;49.824;10.994;2024-03-23T02:06:21;7.57;;;3.88;;
84766;SDS011;74995;49.824;10.994;2024-03-23T02:08:47;5.25;;;3.45;;
84766;SDS011;74995;49.824;10.994;2024-03-23T02:11:13;7.88;;;3.70;;
84766;SDS011;74995;49.824;10.994;2024-03-23T02:13:38;6.07;;;3.78;;
84766;SDS011;74995;49.824;10.994;2024-03-23T02:16:04;5.13;;;3.72;;
84766;SDS011;74995;49.824;10.994;2024-03-23T02:18:30;5.97;;;4.43;;
84766;SDS011;74995;49.824;10.994;2024-03-23T02:20:56;6.25;;;3.90;;
84766;SDS011;74995;49.824;10.994;2024-03-23T02:23:21;6.80;;;4.05;;
84766;SDS011;74995;49.824;10.994;2024-03-23T02:25:46;6.60;;;3.70;;
84766;SDS011;74995;49.824;10.994;2024-03-23T02:28:12;5.10;;;3.92;;
84766;SDS011;74995;49.824;10.994;2024-03-23T02:30:38;6.07;;;3.85;;
84766;SDS011;74995;49.824;10.994;2024-03-23T02:33:03;9.68;;;4.20;;
84766;SDS011;74995;49.824;10.994;2024-03-23T02:35:29;7.93;;;4.38;;
84766;SDS011;74995;49.824;10.994;2024-03-23T02:37:55;5.03;;;3.88;;
84766;SDS011;74995;49.824;10.994;2024-03-23T02:40:23;7.40;;;4.45;;
84766;SDS011;74995;49.824;10.994;2024-03-23T02:42:49;7.35;;;4.70;;
84766;SDS011;74995;49.824;10.994;2024-03-23T02:45:15;6.57;;;4.15;;
84766;SDS011;74995;49.824;10.994;2024-03-23T02:47:40;5.72;;;3.88;;
84766;SDS011;74995;49.824;10.994;2024-03-23T02:50:06;5.13;;;3.95;;
84766;SDS011;74995;49.824;10.994;2024-03-23T02:52:32;5.22;;;3.88;;
84766;SDS011;74995;49.824;10.994;2024-03-23T02:54:57;7.55;;;4.75;;
84766;SDS011;74995;49.824;10.994;2024-03-23T02:57:23;6.85;;;3.83;;
84766;SDS011;74995;49.824;10.994;2024-03-23T02:59:48;5.53;;;3.80;;
84766;SDS011;74995;49.824;10.994;2024-03-23T03:02:14;4.80;;;3.95;;
84766;SDS011;74995;49.824;10.994;2024-03-23T03:04:40;5.63;;;3.45;;
84766;SDS011;74995;49.824;10.994;2024-03-23T03:07:05;3.25;;;2.40;;
84766;SDS011;74995;49.824;10.994;2024-03-23T03:09:31;4.95;;;3.38;;
84766;SDS011;74995;49.824;10.994;2024-03-23T03:11:56;5.57;;;3.78;;
84766;SDS011;74995;49.824;10.994;2024-03-23T03:14:22;4.80;;;3.45;;
84766;SDS011;74995;49.824;10.994;2024-03-23T03:16:47;5.60;;;3.78;;
84766;SDS011;74995;49.824;10.994;2024-03-23T03:19:12;6.68;;;3.85;;
84766;SDS011;74995;49.824;10.994;2024-03-23T03:21:38;6.07;;;3.63;;
84766;SDS011;74995;49.824;10.994;2024-03-23T03:24:05;5.07;;;3.65;;
84766;SDS011;74995;49.824;10.994;2024-03-23T03:26:31;6.68;;;4.07;;
84766;SDS011;74995;49.824;10.994;2024-03-23T03:28:57;6.05;;;3.58;;
84766;SDS011;74995;49.824;10.994;2024-03-23T03:31:22;5.63;;;3.72;;
84766;SDS011;74995;49.824;10.994;2024-03-23T03:33:49;5.40;;;3.42;;
84766;SDS011;74995;49.824;10.994;2024-03-23T03:36:15;4.40;;;2.40;;
84766;SDS011;74995;49.824;10.994;2024-03-23T03:38:40;7.13;;;4.30;;
84766;SDS011;74995;49.824;10.994;2024-03-23T03:41:05;6.80;;;3.95;;
84766;SDS011;74995;49.824;10.994;2024-03-23T03:43:34;4.03;;;2.50;;
84766;SDS011;74995;49.824;10.994;2024-03-23T03:45:59;5.25;;;3.65;;
84766;SDS011;74995;49.824;10.994;2024-03-23T03:48:26;5.78;;;2.50;;
84766;SDS011;74995;49.824;10.994;2024-03-23T03:50:52;5.68;;;3.53;;
84766;SDS011;74995;49.824;10.994;2024-03-23T03:53:17;5.50;;;3.92;;
84766;SDS011;74995;49.824;10.994;2024-03-23T03:55:43;3.70;;;3.10;;
84766;SDS011;74995;49.824;10.994;2024-03-23T03:58:08;5.82;;;3.40;;
84766;SDS011;74995;49.824;10.994;2024-03-23T04:00:33;5.28;;;3.45;;
84766;SDS011;74995;49.824;10.994;2024-03-23T04:02:59;6.60;;;4.75;;
84766;SDS011;74995;49.824;10.994;2024-03-23T04:05:24;5.90;;;3.72;;
84766;SDS011;74995;49.824;10.994;2024-03-23T04:07:50;5.60;;;3.00;;
84766;SDS011;74995;49.824;10.994;2024-03-23T04:10:15;5.15;;;3.85;;
84766;SDS011;74995;49.824;10.994;2024-03-23T04:12:40;5.10;;;2.90;;
84766;SDS011;74995;49.824;10.994;2024-03-23T04:15:06;5.28;;;4.03;;
84766;SDS011;74995;49.824;10.994;2024-03-23T04:17:32;4.55;;;3.28;;
84766;SDS011;74995;49.824;10.994;2024-03-23T04:19:59;4.88;;;3.60;;
84766;SDS011;74995;49.824;10.994;2024-03-23T04:22:25;6.47;;;4.00;;
84766;SDS011;74995;49.824;10.994;2024-03-23T04:24:52;4.65;;;2.83;;
84766;SDS011;74995;49.824;10.994;2024-03-23T04:27:18;6.78;;;4.40;;
84766;SDS011;74995;49.824;10.994;2024-03-23T04:29:46;5.70;;;3.83;;
84766;SDS011;74995;49.824;10.994;2024-03-23T04:32:13;5.55;;;3.80;;
84766;SDS011;74995;49.824;10.994;2024-03-23T04:34:39;4.53;;;2.92;;
84766;SDS011;74995;49.824;10.994;2024-03-23T04:37:04;2.67;;;2.28;;
84766;SDS011;74995;49.824;10.994;2024-03-23T04:39:29;5.47;;;3.50;;
84766;SDS011;74995;49.824;10.994;2024-03-23T04:41:55;5.38;;;3.80;;
84766;SDS011;74995;49.824;10.994;2024-03-23T04:44:20;4.70;;;2.45;;
84766;SDS011;74995;49.824;10.994;2024-03-23T04:46:46;5.40;;;3.50;;
84766;SDS011;74995;49.824;10.994;2024-03-23T04:49:11;6.35;;;3.97;;
84766;SDS011;74995;49.824;10.994;2024-03-23T04:51:36;8.35;;;3.70;;
84766;SDS011;74995;49.824;10.994;2024-03-23T04:54:06;5.50;;;4.13;;
84766;SDS011;74995;49.824;10.994;2024-03-23T04:56:32;3.55;;;2.45;;
84766;SDS011;74995;49.824;10.994;2024-03-23T04:58:58;4.97;;;4.03;;
84766;SDS011;74995;49.824;10.994;2024-03-23T05:01:26;5.15;;;4.20;;
84766;SDS011;74995;49.824;10.994;2024-03-23T05:03:51;5.03;;;3.83;;
84766;SDS011;74995;49.824;10.994;2024-03-23T05:06:17;6.75;;;3.65;;
84766;SDS011;74995;49.824;10.994;2024-03-23T05:08:43;6.18;;;4.00;;
84766;SDS011;74995;49.824;10.994;2024-03-23T05:11:08;7.80;;;3.70;;
84766;SDS011;74995;49.824;10.994;2024-03-23T05:13:34;4.70;;;3.17;;
84766;SDS011;74995;49.824;10.994;2024-03-23T05:15:59;3.80;;;2.35;;
84766;SDS011;74995;49.824;10.994;2024-03-23T05:18:24;5.75;;;4.00;;
84766;SDS011;74995;49.824;10.994;2024-03-23T05:20:55;8.00;;;4.28;;
84766;SDS011;74995;49.824;10.994;2024-03-23T05:23:22;6.10;;;3.40;;
84766;SDS011;74995;49.824;10.994;2024-03-23T05:25:47;5.68;;;3.75;;
84766;SDS011;74995;49.824;10.994;2024-03-23T05:28:13;6.03;;;3.90;;
84766;SDS011;74995;49.824;10.994;2024-03-23T05:30:38;6.45;;;4.20;;
84766;SDS011;74995;49.824;10.994;2024-03-23T05:33:05;4.82;;;3.30;;
84766;SDS011;74995;49.824;10.994;2024-03-23T05:35:30;4.53;;;3.63;;
84766;SDS011;74995;49.824;10.994;2024-03-23T05:37:56;5.45;;;3.50;;
84766;SDS011;74995;49.824;10.994;2024-03-23T05:40:23;6.50;;;2.90;;
84766;SDS011;74995;49.824;10.994;2024-03-23T05:42:48;4.50;;;2.90;;
84766;SDS011;74995;49.824;10.994;2024-03-23T05:45:14;6.18;;;3.67;;
84766;SDS011;74995;49.824;10.994;2024-03-23T05:47:39;6.53;;;3.53;;
84766;SDS011;74995;49.824;10.994;2024-03-23T05:50:05;7.93;;;4.32;;
84766;SDS011;74995;49.824;10.994;2024-03-23T05:52:30;4.47;;;3.05;;
84766;SDS011;74995;49.824;10.994;2024-03-23T05:54:55;9.15;;;3.88;;
84766;SDS011;74995;49.824;10.994;2024-03-23T05:57:21;4.85;;;3.60;;
84766;SDS011;74995;49.824;10.994;2024-03-23T05:59:46;6.15;;;3.20;;
84766;SDS011;74995;49.824;10.994;2024-03-23T06:02:11;5.65;;;3.58;;
84766;SDS011;74995;49.824;10.994;2024-03-23T06:04:37;5.82;;;4.05;;
84766;SDS011;74995;49.824;10.994;2024-03-23T06:07:02;8.02;;;3.45;;
84766;SDS011;74995;49.824;10.994;2024-03-23T06:09:28;7.60;;;3.85;;
84766;SDS011;74995;49.824;10.994;2024-03-23T06:11:56;5.00;;;3.53;;
84766;SDS011;74995;49.824;10.994;2024-03-23T06:14:21;5.65;;;3.13;;
84766;SDS011;74995;49.824;10.994;2024-03-23T06:16:47;6.90;;;3.58;;
84766;SDS011;74995;49.824;10.994;2024-03-23T06:19:12;5.88;;;3.92;;
84766;SDS011;74995;49.824;10.994;2024-03-23T06:21:38;6.88;;;3.83;;
84766;SDS011;74995;49.824;10.994;2024-03-23T06:24:08;6.95;;;3.38;;
84766;SDS011;74995;49.824;10.994;2024-03-23T06:26:33;6.38;;;3.95;;
84766;SDS011;74995;49.824;10.994;2024-03-23T06:28:59;6.40;;;4.22;;
84766;SDS011;74995;49.824;10.994;2024-03-23T06:31:24;5.65;;;3.75;;
84766;SDS011;74995;49.824;10.994;2024-03-23T06:33:49;4.60;;;3.15;;
84766;SDS011;74995;49.824;10.994;2024-03-23T06:36:15;5.53;;;3.10;;
84766;SDS011;74995;49.824;10.994;2024-03-23T06:38:40;4.72;;;3.67;;
84766;SDS011;74995;49.824;10.994;2024-03-23T06:41:05;5.28;;;3.50;;
84766;SDS011;74995;49.824;10.994;2024-03-23T06:43:31;4.72;;;2.85;;
84766;SDS011;74995;49.824;10.994;2024-03-23T06:45:56;6.25;;;3.90;;
84766;SDS011;74995;49.824;10.994;2024-03-23T06:48:22;6.20;;;3.88;;
84766;SDS011;74995;49.824;10.994;2024-03-23T06:50:48;3.95;;;3.00;;
84766;SDS011;74995;49.824;10.994;2024-03-23T06:53:13;7.65;;;4.20;;
84766;SDS011;74995;49.824;10.994;2024-03-23T06:55:39;4.40;;;3.30;;
84766;SDS011;74995;49.824;10.994;2024-03-23T06:58:05;5.25;;;3.35;;
84766;SDS011;74995;49.824;10.994;2024-03-23T07:00:30;6.20;;;3.50;;
84766;SDS011;74995;49.824;10.994;2024-03-23T07:02:57;4.82;;;3.35;;
84766;SDS011;74995;49.824;10.994;2024-03-23T07:05:22;5.47;;;3.28;;
84766;SDS011;74995;49.824;10.994;2024-03-23T07:07:47;6.07;;;4.03;;
84766;SDS011;74995;49.824;10.994;2024-03-23T07:10:13;5.28;;;3.58;;
84766;SDS011;74995;49.824;10.994;2024-03-23T07:12:38;6.50;;;3.83;;
84766;SDS011;74995;49.824;10.994;2024-03-23T07:15:04;5.07;;;4.05;;
84766;SDS011;74995;49.824;10.994;2024-03-23T07:17:29;7.65;;;3.95;;
84766;SDS011;74995;49.824;10.994;2024-03-23T07:19:55;5.28;;;3.22;;
84766;SDS011;74995;49.824;10.994;2024-03-23T07:22:20;4.93;;;3.85;;
84766;SDS011;74995;49.824;10.994;2024-03-23T07:24:45;5.45;;;3.78;;
84766;SDS011;74995;49.824;10.994;2024-03-23T07:27:11;6.45;;;4.15;;
84766;SDS011;74995;49.824;10.994;2024-03-23T07:29:36;4.88;;;3.15;;
84766;SDS011;74995;49.824;10.994;2024-03-23T07:32:01;6.78;;;3.42;;
84766;SDS011;74995;49.824;10.994;2024-03-23T07:34:27;4.60;;;3.00;;
84766;SDS011;74995;49.824;10.994;2024-03-23T07:36:52;4.85;;;3.08;;
84766;SDS011;74995;49.824;10.994;2024-03-23T07:39:17;6.68;;;2.75;;
84766;SDS011;74995;49.824;10.994;2024-03-23T07:41:45;3.97;;;2.17;;
84766;SDS011;74995;49.824;10.994;2024-03-23T07:44:11;4.03;;;2.30;;
84766;SDS011;74995;49.824;10.994;2024-03-23T07:46:36;3.75;;;2.30;;
84766;SDS011;74995;49.824;10.994;2024-03-23T07:49:04;2.92;;;2.15;;
84766;SDS011;74995;49.824;10.994;2024-03-23T07:51:29;3.70;;;2.17;;
84766;SDS011;74995;49.824;10.994;2024-03-23T07:53:54;3.72;;;2.40;;
84766;SDS011;74995;49.824;10.994;2024-03-23T07:56:20;4.07;;;2.00;;
84766;SDS011;74995;49.824;10.994;2024-03-23T07:58:46;5.63;;;2.35;;
84766;SDS011;74995;49.824;10.994;2024-03-23T08:01:13;3.45;;;2.00;;
84766;SDS011;74995;49.824;10.994;2024-03-23T08:03:45;2.63;;;1.85;;
84766;SDS011;74995;49.824;10.994;2024-03-23T08:06:11;3.08;;;1.58;;
84766;SDS011;74995;49.824;10.994;2024-03-23T08:08:39;4.88;;;1.90;;
84766;SDS011;74995;49.824;10.994;2024-03-23T08:11:05;3.20;;;2.10;;
84766;SDS011;74995;49.824;10.994;2024-03-23T08:13:31;3.70;;;2.17;;
84766;SDS011;74995;49.824;10.994;2024-03-23T08:16:00;3.15;;;1.88;;
84766;SDS011;74995;49.824;10.994;2024-03-23T08:18:26;2.75;;;1.95;;
84766;SDS011;74995;49.824;10.994;2024-03-23T08:20:58;2.72;;;1.83;;
84766;SDS011;74995;49.824;10.994;2024-03-23T08:25:50;2.38;;;1.83;;
84766;SDS011;74995;49.824;10.994;2024-03-23T08:28:15;2.83;;;1.90;;
84766;SDS011;74995;49.824;10.994;2024-03-23T08:30:41;3.47;;;1.65;;
84766;SDS011;74995;49.824;10.994;2024-03-23T08:33:06;3.10;;;1.98;;
84766;SDS011;74995;49.824;10.994;2024-03-23T08:35:32;2.75;;;1.70;;
84766;SDS011;74995;49.824;10.994;2024-03-23T08:37:57;2.72;;;1.63;;
84766;SDS011;74995;49.824;10.994;2024-03-23T08:40:22;2.70;;;1.63;;
84766;SDS011;74995;49.824;10.994;2024-03-23T08:42:48;2.95;;;1.83;;
84766;SDS011;74995;49.824;10.994;2024-03-23T08:45:13;3.08;;;1.50;;
84766;SDS011;74995;49.824;10.994;2024-03-23T08:47:38;1.92;;;1.15;;
84766;SDS011;74995;49.824;10.994;2024-03-23T08:50:04;1.70;;;1.08;;
84766;SDS011;74995;49.824;10.994;2024-03-23T08:52:29;2.05;;;1.25;;
84766;SDS011;74995;49.824;10.994;2024-03-23T08:54:55;1.42;;;0.68;;
84766;SDS011;74995;49.824;10.994;2024-03-23T08:57:21;2.30;;;0.90;;
84766;SDS011;74995;49.824;10.994;2024-03-23T08:59:47;1.27;;;0.80;;
84766;SDS011;74995;49.824;10.994;2024-03-23T09:02:13;1.48;;;0.80;;
84766;SDS011;74995;49.824;10.994;2024-03-23T09:04:38;0.75;;;0.60;;
84766;SDS011;74995;49.824;10.994;2024-03-23T09:07:03;0.90;;;0.50;;
84766;SDS011;74995;49.824;10.994;2024-03-23T09:09:29;1.17;;;0.40;;
84766;SDS011;74995;49.824;10.994;2024-03-23T09:11:55;0.73;;;0.50;;
84766;SDS011;74995;49.824;10.994;2024-03-23T09:14:21;1.73;;;0.38;;
84766;SDS011;74995;49.824;10.994;2024-03-23T09:16:49;0.60;;;0.50;;
84766;SDS011;74995;49.824;10.994;2024-03-23T09:19:15;0.70;;;0.45;;
84766;SDS011;74995;49.824;10.994;2024-03-23T09:21:40;0.80;;;0.50;;
84766;SDS011;74995;49.824;10.994;2024-03-23T09:24:05;0.38;;;0.30;;
84766;SDS011;74995;49.824;10.994;2024-03-23T09:26:31;0.40;;;0.30;;
84766;SDS011;74995;49.824;10.994;2024-03-23T09:28:56;0.75;;;0.60;;
84766;SDS011;74995;49.824;10.994;2024-03-23T09:31:21;0.10;;;0.10;;
84766;SDS011;74995;49.824;10.994;2024-03-23T09:33:47;0.10;;;0.10;;
84766;SDS011;74995;49.824;10.994;2024-03-23T09:36:12;0.47;;;0.20;;
84766;SDS011;74995;49.824;10.994;2024-03-23T09:38:38;0.85;;;0.20;;
84766;SDS011;74995;49.824;10.994;2024-03-23T09:41:06;0.50;;;0.40;;
84766;SDS011;74995;49.824;10.994;2024-03-23T09:43:32;0.40;;;0.30;;
84766;SDS011;74995;49.824;10.994;2024-03-23T09:45:58;1.10;;;0.20;;
84766;SDS011;74995;49.824;10.994;2024-03-23T09:48:23;1.20;;;0.60;;
84766;SDS011;74995;49.824;10.994;2024-03-23T09:50:49;0.60;;;0.32;;
84766;SDS011;74995;49.824;10.994;2024-03-23T09:53:15;2.05;;;0.40;;
84766;SDS011;74995;49.824;10.994;2024-03-23T09:55:41;0.60;;;0.20;;
84766;SDS011;74995;49.824;10.994;2024-03-23T09:58:06;0.50;;;0.30;;
84766;SDS011;74995;49.824;10.994;2024-03-23T10:00:33;0.20;;;0.20;;
84766;SDS011;74995;49.824;10.994;2024-03-23T10:03:02;0.50;;;0.25;;
84766;SDS011;74995;49.824;10.994;2024-03-23T10:05:28;0.57;;;0.35;;
84766;SDS011;74995;49.824;10.994;2024-03-23T10:07:54;1.52;;;0.52;;
84766;SDS011;74995;49.824;10.994;2024-03-23T10:10:19;2.45;;;1.27;;
84766;SDS011;74995;49.824;10.994;2024-03-23T10:12:46;0.70;;;0.35;;
84766;SDS011;74995;49.824;10.994;2024-03-23T10:15:20;0.95;;;0.50;;
84766;SDS011;74995;49.824;10.994;2024-03-23T10:17:49;0.50;;;0.50;;
84766;SDS011;74995;49.824;10.994;2024-03-23T10:20:21;1.30;;;0.40;;
84766;SDS011;74995;49.824;10.994;2024-03-23T10:22:48;0.90;;;0.82;;
84766;SDS011;74995;49.824;10.994;2024-03-23T10:25:16;1.38;;;0.40;;
84766;SDS011;74995;49.824;10.994;2024-03-23T10:27:42;0.93;;;0.50;;
84766;SDS011;74995;49.824;10.994;2024-03-23T10:30:14;1.15;;;0.38;;
84766;SDS011;74995;49.824;10.994;2024-03-23T10:35:19;3.20;;;0.50;;
84766;SDS011;74995;49.824;10.994;2024-03-23T10:37:46;1.38;;;0.35;;
84766;SDS011;74995;49.824;10.994;2024-03-23T10:40:14;2.17;;;0.65;;
84766;SDS011;74995;49.824;10.994;2024-03-23T10:42:40;1.25;;;0.55;;
84766;SDS011;74995;49.824;10.994;2024-03-23T10:45:06;0.88;;;0.60;;
84766;SDS011;74995;49.824;10.994;2024-03-23T10:47:34;2.10;;;0.50;;
84766;SDS011;74995;49.824;10.994;2024-03-23T10:50:01;2.75;;;0.90;;
84766;SDS011;74995;49.824;10.994;2024-03-23T10:52:27;0.93;;;0.68;;
84766;SDS011;74995;49.824;10.994;2024-03-23T10:54:52;2.20;;;0.80;;
84766;SDS011;74995;49.824;10.994;2024-03-23T10:57:18;1.77;;;0.80;;
84766;SDS011;74995;49.824;10.994;2024-03-23T10:59:46;2.08;;;0.70;;
84766;SDS011;74995;49.824;10.994;2024-03-23T11:02:18;1.02;;;0.70;;
84766;SDS011;74995;49.824;10.994;2024-03-23T11:04:44;1.98;;;1.05;;
84766;SDS011;74995;49.824;10.994;2024-03-23T11:07:28;2.40;;;0.80;;
84766;SDS011;74995;49.824;10.994;2024-03-23T11:09:54;2.17;;;1.00;;
84766;SDS011;74995;49.824;10.994;2024-03-23T11:14:44;1.80;;;0.80;;
84766;SDS011;74995;49.824;10.994;2024-03-23T11:17:10;2.50;;;0.93;;
84766;SDS011;74995;49.824;10.994;2024-03-23T11:19:36;2.20;;;1.15;;
84766;SDS011;74995;49.824;10.994;2024-03-23T11:22:02;2.72;;;0.90;;
84766;SDS011;74995;49.824;10.994;2024-03-23T11:24:28;2.55;;;0.73;;
84766;SDS011;74995;49.824;10.994;2024-03-23T11:26:54;2.13;;;0.85;;
84766;SDS011;74995;49.824;10.994;2024-03-23T11:29:19;2.13;;;0.80;;
84766;SDS011;74995;49.824;10.994;2024-03-23T11:31:48;1.55;;;0.85;;
84766;SDS011;74995;49.824;10.994;2024-03-23T11:34:17;2.67;;;1.38;;
84766;SDS011;74995;49.824;10.994;2024-03-23T11:36:43;3.33;;;1.05;;
84766;SDS011;74995;49.824;10.994;2024-03-23T11:39:12;4.97;;;1.20;;
84766;SDS011;74995;49.824;10.994;2024-03-23T11:44:20;2.38;;;1.13;;
84766;SDS011;74995;49.824;10.994;2024-03-23T11:46:49;4.57;;;0.95;;
84766;SDS011;74995;49.824;10.994;2024-03-23T11:51:53;1.80;;;0.90;;
84766;SDS011;74995;49.824;10.994;2024-03-23T11:54:23;2.72;;;1.00;;
84766;SDS011;74995;49.824;10.994;2024-03-23T11:56:56;4.05;;;1.20;;
84766;SDS011;74995;49.824;10.994;2024-03-23T12:01:56;1.58;;;0.88;;
84766;SDS011;74995;49.824;10.994;2024-03-23T12:04:28;1.60;;;0.80;;
84766;SDS011;74995;49.824;10.994;2024-03-23T12:09:35;2.35;;;0.90;;
84766;SDS011;74995;49.824;10.994;2024-03-23T12:12:10;1.23;;;0.70;;
84766;SDS011;74995;49.824;10.994;2024-03-23T12:14:36;1.58;;;0.80;;
84766;SDS011;74995;49.824;10.994;2024-03-23T12:17:11;3.63;;;1.38;;
84766;SDS011;74995;49.824;10.994;2024-03-23T12:19:40;2.28;;;0.88;;
84766;SDS011;74995;49.824;10.994;2024-03-23T12:22:06;1.45;;;0.82;;
84766;SDS011;74995;49.824;10.994;2024-03-23T12:24:33;3.20;;;1.42;;
84766;SDS011;74995;49.824;10.994;2024-03-23T12:27:02;3.60;;;0.80;;
84766;SDS011;74995;49.824;10.994;2024-03-23T12:29:30;2.38;;;1.10;;
84766;SDS011;74995;49.824;10.994;2024-03-23T12:31:58;2.67;;;1.10;;
84766;SDS011;74995;49.824;10.994;2024-03-23T12:34:24;2.28;;;0.82;;
84766;SDS011;74995;49.824;10.994;2024-03-23T12:36:50;2.28;;;0.95;;
84766;SDS011;74995;49.824;10.994;2024-03-23T12:39:15;1.42;;;0.80;;
84766;SDS011;74995;49.824;10.994;2024-03-23T12:41:40;1.70;;;0.80;;
84766;SDS011;74995;49.824;10.994;2024-03-23T12:44:06;2.58;;;0.80;;
84766;SDS011;74995;49.824;10.994;2024-03-23T12:46:33;2.35;;;0.77;;
84766;SDS011;74995;49.824;10.994;2024-03-23T12:48:58;2.97;;;1.08;;
84766;SDS011;74995;49.824;10.994;2024-03-23T12:51:24;2.90;;;0.90;;
84766;SDS011;74995;49.824;10.994;2024-03-23T12:53:50;3.58;;;1.05;;
84766;SDS011;74995;49.824;10.994;2024-03-23T12:56:15;2.92;;;0.82;;
84766;SDS011;74995;49.824;10.994;2024-03-23T12:58:40;2.33;;;1.05;;
84766;SDS011;74995;49.824;10.994;2024-03-23T13:01:05;3.55;;;1.23;;
84766;SDS011;74995;49.824;10.994;2024-03-23T13:03:31;3.97;;;0.98;;
84766;SDS011;74995;49.824;10.994;2024-03-23T13:05:56;3.30;;;0.70;;
84766;SDS011;74995;49.824;10.994;2024-03-23T13:08:22;1.42;;;0.77;;
84766;SDS011;74995;49.824;10.994;2024-03-23T13:10:47;1.58;;;0.93;;
84766;SDS011;74995;49.824;10.994;2024-03-23T13:13:12;3.10;;;0.90;;
84766;SDS011;74995;49.824;10.994;2024-03-23T13:15:38;3.70;;;1.00;;
84766;SDS011;74995;49.824;10.994;2024-03-23T13:18:03;2.67;;;1.20;;
84766;SDS011;74995;49.824;10.994;2024-03-23T13:20:28;1.98;;;1.00;;
84766;SDS011;74995;49.824;10.994;2024-03-23T13:22:54;3.28;;;0.80;;
84766;SDS011;74995;49.824;10.994;2024-03-23T13:25:19;5.28;;;1.27;;
84766;SDS011;74995;49.824;10.994;2024-03-23T13:27:45;2.58;;;1.20;;
84766;SDS011;74995;49.824;10.994;2024-03-23T13:30:10;3.08;;;0.93;;
84766;SDS011;74995;49.824;10.994;2024-03-23T13:32:36;2.38;;;1.10;;
84766;SDS011;74995;49.824;10.994;2024-03-23T13:35:03;2.38;;;1.23;;
84766;SDS011;74995;49.824;10.994;2024-03-23T13:37:28;3.72;;;1.08;;
84766;SDS011;74995;49.824;10.994;2024-03-23T13:39:54;2.33;;;1.20;;
84766;SDS011;74995;49.824;10.994;2024-03-23T13:42:19;3.45;;;1.52;;
84766;SDS011;74995;49.824;10.994;2024-03-23T13:44:44;3.45;;;1.20;;
84766;SDS011;74995;49.824;10.994;2024-03-23T13:47:10;2.47;;;1.92;;
84766;SDS011;74995;49.824;10.994;2024-03-23T13:49:35;3.97;;;1.40;;
84766;SDS011;74995;49.824;10.994;2024-03-23T13:52:01;1.50;;;0.90;;
84766;SDS011;74995;49.824;10.994;2024-03-23T13:54:26;2.85;;;1.15;;
84766;SDS011;74995;49.824;10.994;2024-03-23T13:56:52;1.88;;;1.08;;
84766;SDS011;74995;49.824;10.994;2024-03-23T13:59:18;3.03;;;1.45;;
84766;SDS011;74995;49.824;10.994;2024-03-23T14:01:44;4.43;;;1.05;;
84766;SDS011;74995;49.824;10.994;2024-03-23T14:04:13;2.78;;;1.08;;
84766;SDS011;74995;49.824;10.994;2024-03-23T14:06:38;2.40;;;0.95;;
84766;SDS011;74995;49.824;10.994;2024-03-23T14:09:04;1.77;;;0.60;;
84766;SDS011;74995;49.824;10.994;2024-03-23T14:11:33;1.10;;;0.80;;
84766;SDS011;74995;49.824;10.994;2024-03-23T14:13:59;2.85;;;0.77;;
84766;SDS011;74995;49.824;10.994;2024-03-23T14:16:24;4.38;;;0.88;;
84766;SDS011;74995;49.824;10.994;2024-03-23T14:18:49;3.40;;;1.02;;
84766;SDS011;74995;49.824;10.994;2024-03-23T14:21:14;3.53;;;1.00;;
84766;SDS011;74995;49.824;10.994;2024-03-23T14:23:40;1.70;;;0.90;;
84766;SDS011;74995;49.824;10.994;2024-03-23T14:26:08;2.00;;;1.00;;
84766;SDS011;74995;49.824;10.994;2024-03-23T14:28:33;2.17;;;0.73;;
84766;SDS011;74995;49.824;10.994;2024-03-23T14:31:00;2.40;;;1.17;;
84766;SDS011;74995;49.824;10.994;2024-03-23T14:33:26;3.30;;;1.05;;
84766;SDS011;74995;49.824;10.994;2024-03-23T14:35:51;2.05;;;0.85;;
84766;SDS011;74995;49.824;10.994;2024-03-23T14:38:18;3.40;;;1.50;;
84766;SDS011;74995;49.824;10.994;2024-03-23T14:40:44;4.10;;;1.38;;
84766;SDS011;74995;49.824;10.994;2024-03-23T14:43:09;7.47;;;1.48;;
84766;SDS011;74995;49.824;10.994;2024-03-23T14:45:35;5.35;;;1.33;;
84766;SDS011;74995;49.824;10.994;2024-03-23T14:48:00;2.83;;;1.02;;
84766;SDS011;74995;49.824;10.994;2024-03-23T14:50:25;2.88;;;1.10;;
84766;SDS011;74995;49.824;10.994;2024-03-23T14:52:51;4.38;;;1.17;;
84766;SDS011;74995;49.824;10.994;2024-03-23T14:55:16;3.35;;;1.13;;
84766;SDS011;74995;49.824;10.994;2024-03-23T14:57:42;2.20;;;0.75;;
84766;SDS011;74995;49.824;10.994;2024-03-23T15:00:07;2.13;;;0.90;;
84766;SDS011;74995;49.824;10.994;2024-03-23T15:02:35;2.25;;;1.10;;
84766;SDS011;74995;49.824;10.994;2024-03-23T15:05:01;1.95;;;0.95;;
84766;SDS011;74995;49.824;10.994;2024-03-23T15:07:28;3.65;;;1.42;;
84766;SDS011;74995;49.824;10.994;2024-03-23T15:09:54;2.47;;;1.05;;
84766;SDS011;74995;49.824;10.994;2024-03-23T15:12:19;3.07;;;0.90;;
84766;SDS011;74995;49.824;10.994;2024-03-23T15:14:44;2.50;;;1.20;;
84766;SDS011;74995;49.824;10.994;2024-03-23T15:17:11;3.35;;;1.80;;
84766;SDS011;74995;49.824;10.994;2024-03-23T15:19:36;2.88;;;0.88;;
84766;SDS011;74995;49.824;10.994;2024-03-23T15:22:01;3.55;;;1.17;;
84766;SDS011;74995;49.824;10.994;2024-03-23T15:24:27;3.67;;;1.13;;
84766;SDS011;74995;49.824;10.994;2024-03-23T15:26:53;5.05;;;1.58;;
84766;SDS011;74995;49.824;10.994;2024-03-23T15:29:18;3.72;;;0.95;;
84766;SDS011;74995;49.824;10.994;2024-03-23T15:31:47;4.60;;;1.02;;
84766;SDS011;74995;49.824;10.994;2024-03-23T15:34:15;2.65;;;0.73;;
84766;SDS011;74995;49.824;10.994;2024-03-23T15:36:40;8.68;;;1.65;;
84766;SDS011;74995;49.824;10.994;2024-03-23T15:39:05;2.42;;;0.80;;